createdAt,value
2022-10-05T00:01:33.928Z,20.30
2022-10-05T00:04:16.587Z,20.37
2022-10-05T00:06:49.389Z,21.27
2022-10-05T00:09:21.800Z,21.47
2022-10-05T00:11:54.369Z,19.50
2022-10-05T00:14:30.952Z,19.23
2022-10-05T00:17:02.779Z,20.77
2022-10-05T00:19:38.369Z,19.90
2022-10-05T00:22:16.177Z,20.53
2022-10-05T00:24:47.990Z,20.50
2022-10-05T00:27:21.611Z,21.13
2022-10-05T00:29:54.553Z,19.70
2022-10-05T00:32:25.689Z,18.73
2022-10-05T00:35:01.800Z,19.23
2022-10-05T00:37:33.049Z,18.90
2022-10-05T00:40:04.385Z,18.23
2022-10-05T00:42:44.923Z,18.93
2022-10-05T00:45:20.062Z,18.80
2022-10-05T00:48:04.924Z,19.00
2022-10-05T00:51:03.496Z,18.03
2022-10-05T00:53:46.237Z,19.40
2022-10-05T00:56:27.691Z,20.43
2022-10-05T00:59:12.085Z,21.90
2022-10-05T01:01:48.423Z,20.30
2022-10-05T01:04:24.581Z,22.47
2022-10-05T01:07:10.044Z,22.67
2022-10-05T01:09:49.542Z,20.73
2022-10-05T01:12:29.937Z,20.53
2022-10-05T01:15:08.759Z,22.20
2022-10-05T01:17:48.114Z,21.63
2022-10-05T01:20:53.035Z,21.90
2022-10-05T01:23:53.068Z,22.37
2022-10-05T01:26:41.263Z,20.90
2022-10-05T01:29:20.457Z,20.67
2022-10-05T01:31:59.105Z,19.77
2022-10-05T01:34:40.414Z,21.23
2022-10-05T01:37:20.289Z,21.87
2022-10-05T01:40:00.036Z,20.90
2022-10-05T01:42:40.728Z,21.07
2022-10-05T01:45:22.205Z,20.43
2022-10-05T01:47:54.927Z,20.80
2022-10-05T01:50:36.149Z,22.20
2022-10-05T01:53:22.415Z,20.40
2022-10-05T01:55:59.876Z,21.90
2022-10-05T01:58:40.313Z,23.00
2022-10-05T02:01:19.980Z,23.43
2022-10-05T02:03:55.908Z,23.03
2022-10-05T02:06:29.657Z,22.83
2022-10-05T02:09:19.478Z,21.50
2022-10-05T02:11:56.483Z,23.37
2022-10-05T02:14:33.742Z,22.37
2022-10-05T02:17:17.506Z,22.10
2022-10-05T02:19:52.202Z,22.23
2022-10-05T02:22:32.325Z,21.30
2022-10-05T02:25:07.446Z,21.73
2022-10-05T02:28:08.082Z,21.90
2022-10-05T02:30:52.142Z,21.30
2022-10-05T02:33:44.652Z,21.27
2022-10-05T02:36:24.234Z,21.47
2022-10-05T02:39:16.392Z,20.57
2022-10-05T02:41:56.927Z,21.07
2022-10-05T02:44:41.449Z,20.97
2022-10-05T02:47:24.175Z,21.43
2022-10-05T02:50:04.061Z,20.43
2022-10-05T02:52:44.821Z,19.40
2022-10-05T02:55:24.356Z,20.43
2022-10-05T02:58:06.854Z,19.30
2022-10-05T03:00:45.199Z,19.50
2022-10-05T03:03:25.639Z,19.73
2022-10-05T03:06:05.056Z,19.43
2022-10-05T03:08:48.581Z,19.20
2022-10-05T03:11:29.015Z,18.63
2022-10-05T03:27:02.757Z,20.17
2022-10-05T03:30:01.795Z,19.30
2022-10-05T03:32:49.590Z,20.00
2022-10-05T03:35:39.515Z,18.57
2022-10-05T03:38:47.438Z,18.13
2022-10-05T03:41:30.633Z,18.23
2022-10-05T03:44:20.625Z,18.30
2022-10-05T03:47:18.073Z,19.73
2022-10-05T03:50:17.108Z,18.43
2022-10-05T03:52:53.649Z,18.17
2022-10-05T03:55:32.260Z,17.70
2022-10-05T03:58:15.389Z,19.23
2022-10-05T04:04:19.402Z,19.43
2022-10-05T04:07:08.364Z,19.97
2022-10-05T04:09:48.265Z,19.57
2022-10-05T04:26:03.755Z,19.23
2022-10-05T04:29:02.484Z,19.80
2022-10-05T04:35:57.054Z,18.27
2022-10-05T04:38:58.978Z,19.23
2022-10-05T04:41:58.177Z,19.23
2022-10-05T04:45:10.388Z,20.40
2022-10-05T04:48:29.291Z,19.30
2022-10-05T04:51:17.031Z,19.47
2022-10-05T04:54:04.230Z,19.07
2022-10-05T04:56:48.657Z,21.00
2022-10-05T05:02:10.913Z,21.40
2022-10-05T05:05:14.485Z,21.50
2022-10-05T05:08:25.218Z,20.17
2022-10-05T05:11:35.172Z,20.33
2022-10-05T05:48:12.648Z,21.93
2022-10-05T05:51:07.815Z,20.50
2022-10-05T05:53:48.808Z,20.23
2022-10-05T07:32:23.009Z,26.57
2022-10-05T07:35:17.172Z,26.50
2022-10-05T08:10:53.150Z,29.73
2022-10-05T08:13:38.080Z,27.17
2022-10-05T08:16:17.022Z,26.30
2022-10-05T08:19:05.019Z,27.50
2022-10-05T08:21:52.353Z,27.03
2022-10-05T08:24:51.633Z,27.27
2022-10-05T09:17:22.106Z,29.73
2022-10-05T09:20:35.007Z,28.67
2022-10-05T09:23:26.916Z,28.80
2022-10-05T09:27:08.916Z,28.77
2022-10-05T14:41:50.129Z,20.37
2022-10-05T14:53:21.578Z,19.97
2022-10-05T16:17:19.678Z,11.53
2022-10-05T16:44:24.099Z,13.40
2022-10-05T16:47:03.796Z,12.77
2022-10-05T16:49:50.426Z,13.00
2022-10-05T16:52:29.825Z,13.03
2022-10-05T16:55:09.109Z,13.30
2022-10-05T16:57:44.778Z,11.53
2022-10-05T17:00:28.174Z,11.43
2022-10-05T17:03:23.848Z,12.33
2022-10-05T17:06:28.682Z,12.40
2022-10-05T18:41:04.812Z,20.37
2022-10-05T18:47:27.030Z,20.03
2022-10-05T18:50:22.919Z,19.60
2022-10-05T18:59:44.939Z,21.33
2022-10-05T19:02:31.131Z,21.57
2022-10-05T19:05:48.799Z,22.27
2022-10-05T19:08:34.041Z,20.93
2022-10-05T19:11:26.757Z,22.27
2022-10-05T19:14:13.004Z,22.57
2022-10-05T19:25:14.144Z,24.90
2022-10-05T19:28:00.430Z,24.33
2022-10-05T19:30:49.328Z,25.43
2022-10-05T19:33:37.790Z,25.73
2022-10-05T19:39:35.463Z,25.00
2022-10-05T19:42:29.317Z,25.53
2022-10-05T19:45:21.859Z,22.97
2022-10-05T19:50:40.018Z,23.60
2022-10-05T19:53:21.977Z,22.63
2022-10-05T19:56:08.967Z,21.97
2022-10-05T19:58:45.983Z,23.23
2022-10-05T20:01:34.764Z,24.03
2022-10-05T20:04:10.859Z,23.37
2022-10-05T20:06:50.996Z,23.83
2022-10-05T20:09:27.930Z,22.07
2022-10-05T20:12:09.225Z,23.07
2022-10-05T20:20:27.623Z,22.80
2022-10-05T20:23:29.451Z,21.87
2022-10-05T20:26:18.868Z,22.20
2022-10-05T20:28:52.401Z,24.03
2022-10-05T20:31:39.471Z,22.73
2022-10-05T20:34:18.449Z,23.60
2022-10-05T20:36:57.093Z,23.70
2022-10-05T20:39:35.948Z,23.47
2022-10-05T20:42:09.317Z,23.37
2022-10-05T20:44:49.939Z,24.47
2022-10-05T20:47:31.486Z,23.60
2022-10-05T20:50:09.651Z,24.43
2022-10-05T20:55:35.651Z,23.10
2022-10-05T20:58:09.832Z,22.70
2022-10-05T21:01:00.700Z,24.17
2022-10-05T21:03:32.223Z,21.70
2022-10-05T21:06:03.248Z,22.13
2022-10-05T21:08:35.830Z,21.83
2022-10-05T21:11:10.744Z,22.07
2022-10-05T21:13:46.375Z,21.03
2022-10-05T21:16:19.368Z,20.53
2022-10-05T21:18:51.531Z,20.70
2022-10-05T21:21:22.815Z,20.60
2022-10-05T21:23:53.852Z,21.23
2022-10-05T21:26:28.597Z,20.43
2022-10-05T21:29:01.109Z,20.47
2022-10-05T21:31:33.864Z,20.40
2022-10-05T21:34:05.531Z,21.60
2022-10-05T21:36:36.692Z,21.87
2022-10-05T21:39:07.881Z,22.23
2022-10-05T21:41:41.639Z,21.10
2022-10-05T21:44:14.922Z,23.27
2022-10-05T21:46:46.863Z,21.83
2022-10-05T21:49:19.835Z,24.17
2022-10-05T21:51:51.702Z,23.83
2022-10-05T21:54:25.926Z,25.00
2022-10-05T21:57:01.465Z,25.47
2022-10-05T21:59:37.884Z,24.67
2022-10-05T22:02:08.899Z,23.47
2022-10-05T22:04:40.651Z,25.97
2022-10-05T22:07:20.886Z,24.63
2022-10-05T22:09:52.164Z,26.60
2022-10-05T22:12:27.382Z,27.43
2022-10-05T22:14:58.801Z,27.40
2022-10-05T22:17:32.748Z,26.43
2022-10-05T22:20:04.473Z,27.07
2022-10-05T22:22:36.044Z,26.80
2022-10-05T22:25:08.134Z,28.00
2022-10-05T22:27:43.885Z,27.20
2022-10-05T22:30:16.739Z,26.60
2022-10-05T22:32:48.093Z,26.90
2022-10-05T22:35:19.116Z,26.83
2022-10-05T22:37:51.388Z,27.20
2022-10-05T22:40:23.216Z,27.07
2022-10-05T22:42:57.679Z,26.70
2022-10-05T22:45:32.561Z,26.53
2022-10-05T22:48:04.746Z,25.40
2022-10-05T22:50:36.733Z,25.70
2022-10-05T22:53:08.046Z,25.17
2022-10-05T22:55:39.081Z,25.03
2022-10-05T22:58:12.223Z,25.00
2022-10-05T23:00:59.193Z,25.63
2022-10-05T23:03:32.556Z,25.77
2022-10-05T23:06:05.352Z,23.80
2022-10-05T23:08:37.915Z,24.43
2022-10-05T23:11:13.547Z,23.23
2022-10-05T23:13:47.540Z,22.23
2022-10-05T23:16:21.183Z,22.13
2022-10-05T23:18:52.921Z,22.47
2022-10-05T23:21:25.573Z,19.97
2022-10-05T23:23:56.733Z,18.80
2022-10-05T23:26:28.651Z,18.57
2022-10-05T23:29:03.051Z,19.07
2022-10-05T23:31:37.887Z,18.23
2022-10-05T23:34:08.921Z,18.90
2022-10-05T23:36:40.117Z,19.93
2022-10-05T23:39:13.030Z,19.33
2022-10-05T23:41:44.739Z,19.80
2022-10-05T23:44:18.601Z,21.50
2022-10-05T23:46:50.036Z,23.67
2022-10-05T23:49:21.905Z,23.43
2022-10-05T23:51:53.151Z,22.43
2022-10-05T23:54:24.484Z,21.37
2022-10-05T23:56:56.290Z,22.60
2022-10-05T23:59:29.919Z,21.93
